sensor_id;sensor_type;location;lat;lon;timestamp;P1;durP1;ratioP1;P2;durP2;ratioP2
4885;SDS011;2457;51.788;6.136;2023-04-08T00:01:19;10.50;;;6.67;;
4885;SDS011;2457;51.788;6.136;2023-04-08T00:03:46;11.10;;;7.00;;
4885;SDS011;2457;51.788;6.136;2023-04-08T00:06:13;8.53;;;5.67;;
4885;SDS011;2457;51.788;6.136;2023-04-08T00:08:41;9.80;;;6.87;;
4885;SDS011;2457;51.788;6.136;2023-04-08T00:11:08;14.00;;;8.10;;
4885;SDS011;2457;51.788;6.136;2023-04-08T00:13:36;9.07;;;5.70;;
4885;SDS011;2457;51.788;6.136;2023-04-08T00:16:03;8.00;;;5.80;;
4885;SDS011;2457;51.788;6.136;2023-04-08T00:18:31;8.50;;;5.70;;
4885;SDS011;2457;51.788;6.136;2023-04-08T00:20:58;10.00;;;6.20;;
4885;SDS011;2457;51.788;6.136;2023-04-08T00:23:26;9.20;;;5.80;;
4885;SDS011;2457;51.788;6.136;2023-04-08T00:25:53;9.70;;;6.30;;
4885;SDS011;2457;51.788;6.136;2023-04-08T00:28:20;8.77;;;6.17;;
4885;SDS011;2457;51.788;6.136;2023-04-08T00:30:48;10.57;;;6.60;;
4885;SDS011;2457;51.788;6.136;2023-04-08T00:33:16;9.60;;;5.93;;
4885;SDS011;2457;51.788;6.136;2023-04-08T00:35:44;10.03;;;5.60;;
4885;SDS011;2457;51.788;6.136;2023-04-08T00:38:11;10.60;;;7.13;;
4885;SDS011;2457;51.788;6.136;2023-04-08T00:40:38;10.63;;;6.17;;
4885;SDS011;2457;51.788;6.136;2023-04-08T00:43:06;7.53;;;5.17;;
4885;SDS011;2457;51.788;6.136;2023-04-08T00:45:33;8.77;;;5.30;;
4885;SDS011;2457;51.788;6.136;2023-04-08T00:48:01;10.37;;;6.90;;
4885;SDS011;2457;51.788;6.136;2023-04-08T00:50:29;9.43;;;6.20;;
4885;SDS011;2457;51.788;6.136;2023-04-08T00:52:56;10.13;;;5.90;;
4885;SDS011;2457;51.788;6.136;2023-04-08T00:55:23;8.80;;;5.90;;
4885;SDS011;2457;51.788;6.136;2023-04-08T00:57:50;9.30;;;5.53;;
4885;SDS011;2457;51.788;6.136;2023-04-08T01:00:18;7.40;;;5.00;;
4885;SDS011;2457;51.788;6.136;2023-04-08T01:05:19;10.17;;;5.97;;
4885;SDS011;2457;51.788;6.136;2023-04-08T01:07:48;7.90;;;5.37;;
4885;SDS011;2457;51.788;6.136;2023-04-08T01:10:22;8.90;;;5.10;;
4885;SDS011;2457;51.788;6.136;2023-04-08T01:12:42;8.07;;;5.07;;
4885;SDS011;2457;51.788;6.136;2023-04-08T01:15:10;7.50;;;4.87;;
4885;SDS011;2457;51.788;6.136;2023-04-08T01:17:37;8.63;;;5.40;;
4885;SDS011;2457;51.788;6.136;2023-04-08T01:20:06;7.80;;;4.97;;
4885;SDS011;2457;51.788;6.136;2023-04-08T01:25:21;7.83;;;4.57;;
4885;SDS011;2457;51.788;6.136;2023-04-08T01:27:49;7.37;;;4.23;;
4885;SDS011;2457;51.788;6.136;2023-04-08T01:30:17;8.03;;;4.80;;
4885;SDS011;2457;51.788;6.136;2023-04-08T01:32:45;7.53;;;4.57;;
4885;SDS011;2457;51.788;6.136;2023-04-08T01:35:14;7.33;;;4.67;;
4885;SDS011;2457;51.788;6.136;2023-04-08T01:37:41;8.43;;;5.40;;
4885;SDS011;2457;51.788;6.136;2023-04-08T01:40:09;9.30;;;4.90;;
4885;SDS011;2457;51.788;6.136;2023-04-08T01:42:37;7.97;;;5.23;;
4885;SDS011;2457;51.788;6.136;2023-04-08T01:45:05;9.63;;;5.33;;
4885;SDS011;2457;51.788;6.136;2023-04-08T01:47:33;10.10;;;6.30;;
4885;SDS011;2457;51.788;6.136;2023-04-08T01:50:00;9.17;;;6.33;;
4885;SDS011;2457;51.788;6.136;2023-04-08T01:52:28;11.50;;;6.60;;
4885;SDS011;2457;51.788;6.136;2023-04-08T01:54:56;8.70;;;5.80;;
4885;SDS011;2457;51.788;6.136;2023-04-08T01:57:23;9.17;;;5.87;;
4885;SDS011;2457;51.788;6.136;2023-04-08T01:59:52;7.97;;;5.37;;
4885;SDS011;2457;51.788;6.136;2023-04-08T02:02:21;9.17;;;5.80;;
4885;SDS011;2457;51.788;6.136;2023-04-08T02:04:50;11.43;;;7.00;;
4885;SDS011;2457;51.788;6.136;2023-04-08T02:07:17;9.67;;;5.83;;
4885;SDS011;2457;51.788;6.136;2023-04-08T02:09:44;12.07;;;7.37;;
4885;SDS011;2457;51.788;6.136;2023-04-08T02:12:11;11.70;;;7.20;;
4885;SDS011;2457;51.788;6.136;2023-04-08T02:14:39;10.90;;;7.00;;
4885;SDS011;2457;51.788;6.136;2023-04-08T02:17:18;11.27;;;6.77;;
4885;SDS011;2457;51.788;6.136;2023-04-08T02:19:51;10.90;;;6.10;;
4885;SDS011;2457;51.788;6.136;2023-04-08T02:22:18;10.60;;;6.47;;
4885;SDS011;2457;51.788;6.136;2023-04-08T02:24:45;8.77;;;6.07;;
4885;SDS011;2457;51.788;6.136;2023-04-08T02:27:13;11.70;;;6.67;;
4885;SDS011;2457;51.788;6.136;2023-04-08T02:29:42;10.13;;;6.60;;
4885;SDS011;2457;51.788;6.136;2023-04-08T02:32:09;11.47;;;7.30;;
4885;SDS011;2457;51.788;6.136;2023-04-08T02:34:38;9.90;;;6.40;;
4885;SDS011;2457;51.788;6.136;2023-04-08T02:37:07;12.30;;;7.60;;
4885;SDS011;2457;51.788;6.136;2023-04-08T02:39:34;9.93;;;6.40;;
4885;SDS011;2457;51.788;6.136;2023-04-08T02:42:02;11.47;;;6.80;;
4885;SDS011;2457;51.788;6.136;2023-04-08T02:44:30;9.90;;;5.73;;
4885;SDS011;2457;51.788;6.136;2023-04-08T02:46:58;11.50;;;6.93;;
4885;SDS011;2457;51.788;6.136;2023-04-08T02:49:25;12.40;;;7.50;;
4885;SDS011;2457;51.788;6.136;2023-04-08T02:51:52;7.90;;;5.30;;
4885;SDS011;2457;51.788;6.136;2023-04-08T02:54:20;8.53;;;5.37;;
4885;SDS011;2457;51.788;6.136;2023-04-08T02:56:47;6.17;;;4.10;;
4885;SDS011;2457;51.788;6.136;2023-04-08T02:59:14;9.17;;;6.00;;
4885;SDS011;2457;51.788;6.136;2023-04-08T03:01:41;8.40;;;4.90;;
4885;SDS011;2457;51.788;6.136;2023-04-08T03:04:09;9.77;;;5.80;;
4885;SDS011;2457;51.788;6.136;2023-04-08T03:06:36;8.57;;;5.50;;
4885;SDS011;2457;51.788;6.136;2023-04-08T03:09:03;8.00;;;4.70;;
4885;SDS011;2457;51.788;6.136;2023-04-08T03:11:33;7.57;;;4.40;;
4885;SDS011;2457;51.788;6.136;2023-04-08T03:14:01;8.57;;;5.60;;
4885;SDS011;2457;51.788;6.136;2023-04-08T03:16:28;6.83;;;4.40;;
4885;SDS011;2457;51.788;6.136;2023-04-08T03:18:55;7.80;;;4.70;;
4885;SDS011;2457;51.788;6.136;2023-04-08T03:21:22;6.60;;;4.30;;
4885;SDS011;2457;51.788;6.136;2023-04-08T03:23:50;7.10;;;4.13;;
4885;SDS011;2457;51.788;6.136;2023-04-08T03:26:17;7.00;;;4.70;;
4885;SDS011;2457;51.788;6.136;2023-04-08T03:28:44;7.20;;;4.43;;
4885;SDS011;2457;51.788;6.136;2023-04-08T03:31:11;8.30;;;3.87;;
4885;SDS011;2457;51.788;6.136;2023-04-08T03:33:39;6.93;;;4.43;;
4885;SDS011;2457;51.788;6.136;2023-04-08T03:36:06;7.10;;;4.30;;
4885;SDS011;2457;51.788;6.136;2023-04-08T03:38:33;9.73;;;4.47;;
4885;SDS011;2457;51.788;6.136;2023-04-08T03:41:01;6.70;;;3.90;;
4885;SDS011;2457;51.788;6.136;2023-04-08T03:43:29;5.70;;;3.70;;
4885;SDS011;2457;51.788;6.136;2023-04-08T03:45:56;5.47;;;3.20;;
4885;SDS011;2457;51.788;6.136;2023-04-08T03:48:23;5.77;;;3.77;;
4885;SDS011;2457;51.788;6.136;2023-04-08T03:50:51;6.87;;;3.90;;
4885;SDS011;2457;51.788;6.136;2023-04-08T03:53:18;7.60;;;4.83;;
4885;SDS011;2457;51.788;6.136;2023-04-08T03:55:47;6.40;;;4.07;;
4885;SDS011;2457;51.788;6.136;2023-04-08T03:58:15;6.80;;;4.13;;
4885;SDS011;2457;51.788;6.136;2023-04-08T04:00:43;7.03;;;4.33;;
4885;SDS011;2457;51.788;6.136;2023-04-08T04:03:10;7.83;;;4.67;;
4885;SDS011;2457;51.788;6.136;2023-04-08T04:05:38;10.03;;;4.73;;
4885;SDS011;2457;51.788;6.136;2023-04-08T04:08:06;5.87;;;3.70;;
4885;SDS011;2457;51.788;6.136;2023-04-08T04:10:34;8.73;;;3.20;;
4885;SDS011;2457;51.788;6.136;2023-04-08T04:13:01;5.77;;;3.30;;
4885;SDS011;2457;51.788;6.136;2023-04-08T04:15:29;5.57;;;3.07;;
4885;SDS011;2457;51.788;6.136;2023-04-08T04:17:56;6.00;;;3.60;;
4885;SDS011;2457;51.788;6.136;2023-04-08T04:20:23;5.97;;;3.77;;
4885;SDS011;2457;51.788;6.136;2023-04-08T04:22:51;5.43;;;3.13;;
4885;SDS011;2457;51.788;6.136;2023-04-08T04:25:18;6.13;;;3.60;;
4885;SDS011;2457;51.788;6.136;2023-04-08T04:27:46;6.10;;;4.00;;
4885;SDS011;2457;51.788;6.136;2023-04-08T04:30:13;5.53;;;3.17;;
4885;SDS011;2457;51.788;6.136;2023-04-08T04:32:44;6.27;;;3.50;;
4885;SDS011;2457;51.788;6.136;2023-04-08T04:35:11;5.40;;;3.23;;
4885;SDS011;2457;51.788;6.136;2023-04-08T04:37:39;6.80;;;4.10;;
4885;SDS011;2457;51.788;6.136;2023-04-08T04:40:07;6.87;;;4.20;;
4885;SDS011;2457;51.788;6.136;2023-04-08T04:42:34;6.70;;;4.07;;
4885;SDS011;2457;51.788;6.136;2023-04-08T04:45:01;7.63;;;5.00;;
4885;SDS011;2457;51.788;6.136;2023-04-08T04:47:29;5.97;;;3.40;;
4885;SDS011;2457;51.788;6.136;2023-04-08T04:49:57;7.57;;;4.43;;
4885;SDS011;2457;51.788;6.136;2023-04-08T04:52:25;6.23;;;4.17;;
4885;SDS011;2457;51.788;6.136;2023-04-08T04:54:52;8.60;;;4.87;;
4885;SDS011;2457;51.788;6.136;2023-04-08T04:57:19;7.67;;;5.00;;
4885;SDS011;2457;51.788;6.136;2023-04-08T04:59:46;8.30;;;5.13;;
4885;SDS011;2457;51.788;6.136;2023-04-08T05:02:14;7.80;;;4.70;;
4885;SDS011;2457;51.788;6.136;2023-04-08T05:04:41;9.13;;;5.20;;
4885;SDS011;2457;51.788;6.136;2023-04-08T05:07:08;7.20;;;4.83;;
4885;SDS011;2457;51.788;6.136;2023-04-08T05:09:36;5.80;;;3.87;;
4885;SDS011;2457;51.788;6.136;2023-04-08T05:12:03;8.47;;;5.47;;
4885;SDS011;2457;51.788;6.136;2023-04-08T05:14:30;5.80;;;4.10;;
4885;SDS011;2457;51.788;6.136;2023-04-08T05:16:58;8.63;;;5.80;;
4885;SDS011;2457;51.788;6.136;2023-04-08T05:19:26;8.33;;;4.93;;
4885;SDS011;2457;51.788;6.136;2023-04-08T05:21:53;8.53;;;5.27;;
4885;SDS011;2457;51.788;6.136;2023-04-08T05:24:20;8.20;;;5.27;;
4885;SDS011;2457;51.788;6.136;2023-04-08T05:26:47;10.10;;;6.30;;
4885;SDS011;2457;51.788;6.136;2023-04-08T05:29:16;10.33;;;6.07;;
4885;SDS011;2457;51.788;6.136;2023-04-08T05:31:44;9.77;;;5.90;;
4885;SDS011;2457;51.788;6.136;2023-04-08T05:34:11;8.80;;;5.30;;
4885;SDS011;2457;51.788;6.136;2023-04-08T05:36:38;9.53;;;5.40;;
4885;SDS011;2457;51.788;6.136;2023-04-08T05:39:06;8.20;;;5.20;;
4885;SDS011;2457;51.788;6.136;2023-04-08T05:41:33;7.63;;;5.23;;
4885;SDS011;2457;51.788;6.136;2023-04-08T05:44:00;8.00;;;4.87;;
4885;SDS011;2457;51.788;6.136;2023-04-08T05:46:27;8.20;;;5.17;;
4885;SDS011;2457;51.788;6.136;2023-04-08T05:48:55;9.50;;;5.63;;
4885;SDS011;2457;51.788;6.136;2023-04-08T05:51:22;8.67;;;5.77;;
4885;SDS011;2457;51.788;6.136;2023-04-08T05:53:49;9.00;;;5.53;;
4885;SDS011;2457;51.788;6.136;2023-04-08T05:56:16;8.37;;;5.30;;
4885;SDS011;2457;51.788;6.136;2023-04-08T05:58:44;9.03;;;5.57;;
4885;SDS011;2457;51.788;6.136;2023-04-08T06:01:11;8.73;;;5.97;;
4885;SDS011;2457;51.788;6.136;2023-04-08T06:03:39;10.03;;;5.70;;
4885;SDS011;2457;51.788;6.136;2023-04-08T06:06:14;8.57;;;5.90;;
4885;SDS011;2457;51.788;6.136;2023-04-08T06:08:38;10.43;;;6.20;;
4885;SDS011;2457;51.788;6.136;2023-04-08T06:11:05;7.80;;;5.60;;
4885;SDS011;2457;51.788;6.136;2023-04-08T06:13:32;9.03;;;6.20;;
4885;SDS011;2457;51.788;6.136;2023-04-08T06:16:08;10.00;;;5.80;;
4885;SDS011;2457;51.788;6.136;2023-04-08T06:18:28;7.70;;;5.20;;
4885;SDS011;2457;51.788;6.136;2023-04-08T06:20:55;11.10;;;6.73;;
4885;SDS011;2457;51.788;6.136;2023-04-08T06:23:24;7.27;;;4.40;;
4885;SDS011;2457;51.788;6.136;2023-04-08T06:25:52;9.37;;;5.00;;
4885;SDS011;2457;51.788;6.136;2023-04-08T06:28:19;6.40;;;4.30;;
4885;SDS011;2457;51.788;6.136;2023-04-08T06:30:46;7.30;;;4.83;;
4885;SDS011;2457;51.788;6.136;2023-04-08T06:33:14;8.57;;;5.33;;
4885;SDS011;2457;51.788;6.136;2023-04-08T06:35:41;8.00;;;4.90;;
4885;SDS011;2457;51.788;6.136;2023-04-08T06:38:08;9.07;;;5.47;;
4885;SDS011;2457;51.788;6.136;2023-04-08T06:40:37;9.50;;;5.80;;
4885;SDS011;2457;51.788;6.136;2023-04-08T06:43:05;9.23;;;5.23;;
4885;SDS011;2457;51.788;6.136;2023-04-08T06:45:35;8.10;;;5.50;;
4885;SDS011;2457;51.788;6.136;2023-04-08T06:48:02;8.57;;;5.23;;
4885;SDS011;2457;51.788;6.136;2023-04-08T06:50:30;10.53;;;6.40;;
4885;SDS011;2457;51.788;6.136;2023-04-08T06:52:57;9.77;;;6.00;;
4885;SDS011;2457;51.788;6.136;2023-04-08T06:55:25;8.77;;;5.97;;
4885;SDS011;2457;51.788;6.136;2023-04-08T06:57:53;10.40;;;6.30;;
4885;SDS011;2457;51.788;6.136;2023-04-08T07:00:20;10.63;;;6.00;;
4885;SDS011;2457;51.788;6.136;2023-04-08T07:02:47;10.20;;;6.00;;
4885;SDS011;2457;51.788;6.136;2023-04-08T07:05:14;10.23;;;6.10;;
4885;SDS011;2457;51.788;6.136;2023-04-08T07:07:42;10.40;;;6.20;;
4885;SDS011;2457;51.788;6.136;2023-04-08T07:10:09;10.30;;;6.40;;
4885;SDS011;2457;51.788;6.136;2023-04-08T07:12:36;11.63;;;6.50;;
4885;SDS011;2457;51.788;6.136;2023-04-08T07:15:04;9.37;;;5.97;;
4885;SDS011;2457;51.788;6.136;2023-04-08T07:17:31;9.17;;;5.90;;
4885;SDS011;2457;51.788;6.136;2023-04-08T07:19:59;10.77;;;5.70;;
4885;SDS011;2457;51.788;6.136;2023-04-08T07:22:26;11.00;;;6.00;;
4885;SDS011;2457;51.788;6.136;2023-04-08T07:24:54;10.27;;;6.10;;
4885;SDS011;2457;51.788;6.136;2023-04-08T07:27:21;10.07;;;6.37;;
4885;SDS011;2457;51.788;6.136;2023-04-08T07:29:53;9.43;;;6.03;;
4885;SDS011;2457;51.788;6.136;2023-04-08T07:32:17;9.40;;;5.87;;
4885;SDS011;2457;51.788;6.136;2023-04-08T07:34:44;8.60;;;5.80;;
4885;SDS011;2457;51.788;6.136;2023-04-08T07:37:12;8.73;;;5.40;;
4885;SDS011;2457;51.788;6.136;2023-04-08T07:39:39;8.97;;;5.40;;
4885;SDS011;2457;51.788;6.136;2023-04-08T07:42:06;9.90;;;5.90;;
4885;SDS011;2457;51.788;6.136;2023-04-08T07:44:33;9.97;;;5.43;;
4885;SDS011;2457;51.788;6.136;2023-04-08T07:47:01;10.07;;;5.83;;
4885;SDS011;2457;51.788;6.136;2023-04-08T07:49:28;9.43;;;5.90;;
4885;SDS011;2457;51.788;6.136;2023-04-08T07:51:56;9.60;;;5.90;;
4885;SDS011;2457;51.788;6.136;2023-04-08T07:54:23;8.53;;;5.47;;
4885;SDS011;2457;51.788;6.136;2023-04-08T07:56:50;10.80;;;6.13;;
4885;SDS011;2457;51.788;6.136;2023-04-08T07:59:17;9.50;;;5.97;;
4885;SDS011;2457;51.788;6.136;2023-04-08T08:01:45;11.40;;;6.23;;
4885;SDS011;2457;51.788;6.136;2023-04-08T08:04:12;9.47;;;6.07;;
4885;SDS011;2457;51.788;6.136;2023-04-08T08:06:39;10.40;;;5.93;;
4885;SDS011;2457;51.788;6.136;2023-04-08T08:09:06;9.60;;;5.23;;
4885;SDS011;2457;51.788;6.136;2023-04-08T08:11:34;9.13;;;5.70;;
4885;SDS011;2457;51.788;6.136;2023-04-08T08:14:01;10.10;;;6.23;;
4885;SDS011;2457;51.788;6.136;2023-04-08T08:16:30;9.73;;;5.90;;
4885;SDS011;2457;51.788;6.136;2023-04-08T08:18:58;8.10;;;5.53;;
4885;SDS011;2457;51.788;6.136;2023-04-08T08:21:26;8.60;;;5.90;;
4885;SDS011;2457;51.788;6.136;2023-04-08T08:23:53;10.80;;;6.00;;
4885;SDS011;2457;51.788;6.136;2023-04-08T08:26:22;7.33;;;5.10;;
4885;SDS011;2457;51.788;6.136;2023-04-08T08:28:50;9.30;;;5.30;;
4885;SDS011;2457;51.788;6.136;2023-04-08T08:31:17;11.57;;;6.60;;
4885;SDS011;2457;51.788;6.136;2023-04-08T08:33:44;8.17;;;5.47;;
4885;SDS011;2457;51.788;6.136;2023-04-08T08:36:13;7.87;;;4.95;;
4885;SDS011;2457;51.788;6.136;2023-04-08T08:38:40;8.73;;;5.20;;
4885;SDS011;2457;51.788;6.136;2023-04-08T08:41:07;8.50;;;5.00;;
4885;SDS011;2457;51.788;6.136;2023-04-08T08:43:35;9.77;;;5.20;;
4885;SDS011;2457;51.788;6.136;2023-04-08T08:46:03;9.20;;;5.37;;
4885;SDS011;2457;51.788;6.136;2023-04-08T08:48:30;10.17;;;5.43;;
4885;SDS011;2457;51.788;6.136;2023-04-08T08:50:59;7.17;;;4.87;;
4885;SDS011;2457;51.788;6.136;2023-04-08T08:53:28;9.23;;;5.57;;
4885;SDS011;2457;51.788;6.136;2023-04-08T08:55:56;8.97;;;5.63;;
4885;SDS011;2457;51.788;6.136;2023-04-08T08:58:25;8.27;;;5.57;;
4885;SDS011;2457;51.788;6.136;2023-04-08T09:00:52;7.53;;;5.00;;
4885;SDS011;2457;51.788;6.136;2023-04-08T09:03:20;11.60;;;5.03;;
4885;SDS011;2457;51.788;6.136;2023-04-08T09:05:48;10.30;;;6.37;;
4885;SDS011;2457;51.788;6.136;2023-04-08T09:08:22;9.00;;;5.70;;
4885;SDS011;2457;51.788;6.136;2023-04-08T09:10:51;10.83;;;5.50;;
4885;SDS011;2457;51.788;6.136;2023-04-08T09:13:18;9.00;;;5.80;;
4885;SDS011;2457;51.788;6.136;2023-04-08T09:16:02;8.00;;;4.73;;
4885;SDS011;2457;51.788;6.136;2023-04-08T09:18:31;9.90;;;5.33;;
4885;SDS011;2457;51.788;6.136;2023-04-08T09:20:59;8.10;;;4.70;;
4885;SDS011;2457;51.788;6.136;2023-04-08T09:23:36;7.73;;;4.47;;
4885;SDS011;2457;51.788;6.136;2023-04-08T09:26:11;12.40;;;5.57;;
4885;SDS011;2457;51.788;6.136;2023-04-08T09:28:39;9.43;;;5.37;;
4885;SDS011;2457;51.788;6.136;2023-04-08T09:33:48;10.80;;;5.17;;
4885;SDS011;2457;51.788;6.136;2023-04-08T09:36:16;8.00;;;4.77;;
4885;SDS011;2457;51.788;6.136;2023-04-08T09:38:43;8.50;;;5.40;;
4885;SDS011;2457;51.788;6.136;2023-04-08T09:41:14;9.53;;;5.90;;
4885;SDS011;2457;51.788;6.136;2023-04-08T09:43:43;10.03;;;5.33;;
4885;SDS011;2457;51.788;6.136;2023-04-08T09:46:12;11.50;;;6.00;;
4885;SDS011;2457;51.788;6.136;2023-04-08T09:48:39;10.40;;;5.50;;
4885;SDS011;2457;51.788;6.136;2023-04-08T09:51:10;9.03;;;5.10;;
4885;SDS011;2457;51.788;6.136;2023-04-08T09:53:37;10.10;;;5.20;;
4885;SDS011;2457;51.788;6.136;2023-04-08T09:56:07;12.93;;;5.20;;
4885;SDS011;2457;51.788;6.136;2023-04-08T09:58:40;7.93;;;4.80;;
4885;SDS011;2457;51.788;6.136;2023-04-08T10:01:08;9.53;;;5.20;;
4885;SDS011;2457;51.788;6.136;2023-04-08T10:03:44;9.57;;;5.20;;
4885;SDS011;2457;51.788;6.136;2023-04-08T10:06:05;9.90;;;5.70;;
4885;SDS011;2457;51.788;6.136;2023-04-08T10:08:35;11.73;;;5.87;;
4885;SDS011;2457;51.788;6.136;2023-04-08T10:11:02;8.90;;;4.90;;
4885;SDS011;2457;51.788;6.136;2023-04-08T10:13:30;8.73;;;5.53;;
4885;SDS011;2457;51.788;6.136;2023-04-08T10:18:44;8.20;;;5.07;;
4885;SDS011;2457;51.788;6.136;2023-04-08T10:21:31;8.47;;;5.13;;
4885;SDS011;2457;51.788;6.136;2023-04-08T10:23:58;7.80;;;4.70;;
4885;SDS011;2457;51.788;6.136;2023-04-08T10:26:31;7.93;;;5.43;;
4885;SDS011;2457;51.788;6.136;2023-04-08T10:31:47;11.67;;;5.77;;
4885;SDS011;2457;51.788;6.136;2023-04-08T10:34:19;12.73;;;5.63;;
4885;SDS011;2457;51.788;6.136;2023-04-08T10:36:48;10.57;;;6.37;;
4885;SDS011;2457;51.788;6.136;2023-04-08T10:39:15;11.40;;;5.87;;
4885;SDS011;2457;51.788;6.136;2023-04-08T10:41:42;10.20;;;5.50;;
4885;SDS011;2457;51.788;6.136;2023-04-08T10:44:20;12.63;;;5.90;;
4885;SDS011;2457;51.788;6.136;2023-04-08T10:46:39;10.27;;;5.40;;
4885;SDS011;2457;51.788;6.136;2023-04-08T10:49:06;8.33;;;5.07;;
4885;SDS011;2457;51.788;6.136;2023-04-08T10:51:34;9.73;;;5.70;;
4885;SDS011;2457;51.788;6.136;2023-04-08T10:54:04;9.20;;;5.50;;
4885;SDS011;2457;51.788;6.136;2023-04-08T10:56:32;8.73;;;5.13;;
4885;SDS011;2457;51.788;6.136;2023-04-08T10:58:59;12.03;;;6.50;;
4885;SDS011;2457;51.788;6.136;2023-04-08T11:01:27;11.53;;;5.97;;
4885;SDS011;2457;51.788;6.136;2023-04-08T11:03:56;8.80;;;5.30;;
4885;SDS011;2457;51.788;6.136;2023-04-08T11:06:24;10.57;;;5.73;;
4885;SDS011;2457;51.788;6.136;2023-04-08T11:08:53;8.63;;;5.50;;
4885;SDS011;2457;51.788;6.136;2023-04-08T11:11:22;8.73;;;5.70;;
4885;SDS011;2457;51.788;6.136;2023-04-08T11:13:51;9.70;;;5.63;;
4885;SDS011;2457;51.788;6.136;2023-04-08T11:16:24;9.17;;;5.17;;
4885;SDS011;2457;51.788;6.136;2023-04-08T11:18:49;10.43;;;6.17;;
4885;SDS011;2457;51.788;6.136;2023-04-08T11:21:16;10.00;;;6.17;;
4885;SDS011;2457;51.788;6.136;2023-04-08T11:23:43;7.77;;;4.80;;
4885;SDS011;2457;51.788;6.136;2023-04-08T11:26:11;11.00;;;5.43;;
4885;SDS011;2457;51.788;6.136;2023-04-08T11:28:39;10.33;;;5.90;;
4885;SDS011;2457;51.788;6.136;2023-04-08T11:31:07;9.67;;;4.93;;
4885;SDS011;2457;51.788;6.136;2023-04-08T11:33:34;13.10;;;5.33;;
4885;SDS011;2457;51.788;6.136;2023-04-08T11:36:02;7.50;;;4.13;;
4885;SDS011;2457;51.788;6.136;2023-04-08T11:38:29;8.97;;;4.70;;
4885;SDS011;2457;51.788;6.136;2023-04-08T11:40:57;9.50;;;5.10;;
4885;SDS011;2457;51.788;6.136;2023-04-08T11:43:25;10.10;;;4.80;;
4885;SDS011;2457;51.788;6.136;2023-04-08T11:45:52;8.83;;;5.23;;
4885;SDS011;2457;51.788;6.136;2023-04-08T11:48:19;10.87;;;4.90;;
4885;SDS011;2457;51.788;6.136;2023-04-08T11:50:47;11.60;;;4.90;;
4885;SDS011;2457;51.788;6.136;2023-04-08T11:53:19;8.50;;;4.43;;
4885;SDS011;2457;51.788;6.136;2023-04-08T11:55:47;10.53;;;5.60;;
4885;SDS011;2457;51.788;6.136;2023-04-08T11:58:14;7.30;;;3.80;;
4885;SDS011;2457;51.788;6.136;2023-04-08T12:00:42;10.17;;;5.10;;
4885;SDS011;2457;51.788;6.136;2023-04-08T12:03:11;8.07;;;4.43;;
4885;SDS011;2457;51.788;6.136;2023-04-08T12:05:38;11.60;;;4.97;;
4885;SDS011;2457;51.788;6.136;2023-04-08T12:08:05;7.50;;;4.33;;
4885;SDS011;2457;51.788;6.136;2023-04-08T12:10:33;8.10;;;4.00;;
4885;SDS011;2457;51.788;6.136;2023-04-08T12:13:00;8.63;;;4.40;;
4885;SDS011;2457;51.788;6.136;2023-04-08T12:15:27;6.40;;;3.60;;
4885;SDS011;2457;51.788;6.136;2023-04-08T12:17:55;8.40;;;4.07;;
4885;SDS011;2457;51.788;6.136;2023-04-08T12:20:22;7.30;;;4.50;;
4885;SDS011;2457;51.788;6.136;2023-04-08T12:22:49;7.87;;;3.93;;
4885;SDS011;2457;51.788;6.136;2023-04-08T12:25:16;7.03;;;4.00;;
4885;SDS011;2457;51.788;6.136;2023-04-08T12:27:44;7.30;;;4.00;;
4885;SDS011;2457;51.788;6.136;2023-04-08T12:30:11;9.97;;;4.57;;
4885;SDS011;2457;51.788;6.136;2023-04-08T12:32:38;10.63;;;4.97;;
4885;SDS011;2457;51.788;6.136;2023-04-08T12:35:07;7.73;;;4.63;;
4885;SDS011;2457;51.788;6.136;2023-04-08T12:37:35;9.30;;;4.63;;
4885;SDS011;2457;51.788;6.136;2023-04-08T12:40:02;9.47;;;4.37;;
4885;SDS011;2457;51.788;6.136;2023-04-08T12:42:29;7.67;;;4.10;;
4885;SDS011;2457;51.788;6.136;2023-04-08T12:44:56;6.77;;;3.57;;
4885;SDS011;2457;51.788;6.136;2023-04-08T12:47:24;10.67;;;4.60;;
4885;SDS011;2457;51.788;6.136;2023-04-08T12:49:51;8.43;;;4.63;;
4885;SDS011;2457;51.788;6.136;2023-04-08T12:52:18;8.00;;;4.10;;
4885;SDS011;2457;51.788;6.136;2023-04-08T12:54:45;9.53;;;3.93;;
4885;SDS011;2457;51.788;6.136;2023-04-08T12:57:13;8.83;;;5.10;;
4885;SDS011;2457;51.788;6.136;2023-04-08T12:59:40;7.20;;;4.00;;
4885;SDS011;2457;51.788;6.136;2023-04-08T13:02:07;8.23;;;4.33;;
4885;SDS011;2457;51.788;6.136;2023-04-08T13:04:34;6.53;;;3.80;;
4885;SDS011;2457;51.788;6.136;2023-04-08T13:07:02;7.70;;;3.93;;
4885;SDS011;2457;51.788;6.136;2023-04-08T13:09:30;9.10;;;4.33;;
4885;SDS011;2457;51.788;6.136;2023-04-08T13:11:57;9.00;;;4.03;;
4885;SDS011;2457;51.788;6.136;2023-04-08T13:14:24;8.60;;;4.60;;
4885;SDS011;2457;51.788;6.136;2023-04-08T13:16:52;8.37;;;4.70;;
4885;SDS011;2457;51.788;6.136;2023-04-08T13:19:19;7.43;;;4.43;;
4885;SDS011;2457;51.788;6.136;2023-04-08T13:21:47;10.97;;;5.43;;
4885;SDS011;2457;51.788;6.136;2023-04-08T13:24:14;7.67;;;4.20;;
4885;SDS011;2457;51.788;6.136;2023-04-08T13:26:41;8.17;;;4.50;;
4885;SDS011;2457;51.788;6.136;2023-04-08T13:29:09;8.50;;;4.30;;
4885;SDS011;2457;51.788;6.136;2023-04-08T13:31:36;8.13;;;4.93;;
4885;SDS011;2457;51.788;6.136;2023-04-08T13:34:03;9.50;;;5.20;;
4885;SDS011;2457;51.788;6.136;2023-04-08T13:36:31;11.30;;;5.20;;
4885;SDS011;2457;51.788;6.136;2023-04-08T13:38:58;9.67;;;5.30;;
4885;SDS011;2457;51.788;6.136;2023-04-08T13:41:26;8.80;;;5.07;;
4885;SDS011;2457;51.788;6.136;2023-04-08T13:43:54;9.20;;;5.27;;
4885;SDS011;2457;51.788;6.136;2023-04-08T13:46:22;9.10;;;4.70;;
4885;SDS011;2457;51.788;6.136;2023-04-08T13:48:49;10.13;;;5.40;;
4885;SDS011;2457;51.788;6.136;2023-04-08T13:51:16;10.03;;;5.57;;
4885;SDS011;2457;51.788;6.136;2023-04-08T13:53:43;8.17;;;5.07;;
4885;SDS011;2457;51.788;6.136;2023-04-08T13:56:11;9.40;;;5.60;;
4885;SDS011;2457;51.788;6.136;2023-04-08T13:58:38;8.47;;;5.33;;
4885;SDS011;2457;51.788;6.136;2023-04-08T14:01:05;11.90;;;6.13;;
4885;SDS011;2457;51.788;6.136;2023-04-08T14:03:33;10.47;;;6.33;;
4885;SDS011;2457;51.788;6.136;2023-04-08T14:06:00;9.20;;;5.43;;
4885;SDS011;2457;51.788;6.136;2023-04-08T14:08:27;9.07;;;5.00;;
4885;SDS011;2457;51.788;6.136;2023-04-08T14:10:55;11.33;;;6.53;;
4885;SDS011;2457;51.788;6.136;2023-04-08T14:13:22;11.50;;;6.57;;
4885;SDS011;2457;51.788;6.136;2023-04-08T14:15:50;9.57;;;5.43;;
4885;SDS011;2457;51.788;6.136;2023-04-08T14:18:19;10.23;;;6.10;;
4885;SDS011;2457;51.788;6.136;2023-04-08T14:20:47;12.20;;;5.70;;
4885;SDS011;2457;51.788;6.136;2023-04-08T14:23:14;11.10;;;6.17;;
4885;SDS011;2457;51.788;6.136;2023-04-08T14:25:42;8.87;;;5.50;;
4885;SDS011;2457;51.788;6.136;2023-04-08T14:28:09;11.23;;;6.30;;
4885;SDS011;2457;51.788;6.136;2023-04-08T14:30:37;10.17;;;5.47;;
4885;SDS011;2457;51.788;6.136;2023-04-08T14:33:04;10.37;;;5.67;;
4885;SDS011;2457;51.788;6.136;2023-04-08T14:35:32;12.53;;;6.80;;
4885;SDS011;2457;51.788;6.136;2023-04-08T14:37:59;10.30;;;6.23;;
4885;SDS011;2457;51.788;6.136;2023-04-08T14:40:26;11.10;;;6.63;;
4885;SDS011;2457;51.788;6.136;2023-04-08T14:42:53;10.70;;;5.33;;
4885;SDS011;2457;51.788;6.136;2023-04-08T14:45:21;14.13;;;6.03;;
4885;SDS011;2457;51.788;6.136;2023-04-08T14:47:48;7.40;;;3.63;;
4885;SDS011;2457;51.788;6.136;2023-04-08T14:50:15;9.43;;;5.43;;
4885;SDS011;2457;51.788;6.136;2023-04-08T14:52:42;10.40;;;6.03;;
4885;SDS011;2457;51.788;6.136;2023-04-08T14:55:14;10.10;;;6.03;;
4885;SDS011;2457;51.788;6.136;2023-04-08T14:57:42;12.57;;;6.20;;
4885;SDS011;2457;51.788;6.136;2023-04-08T15:00:10;10.80;;;7.00;;
4885;SDS011;2457;51.788;6.136;2023-04-08T15:02:37;15.63;;;5.63;;
4885;SDS011;2457;51.788;6.136;2023-04-08T15:05:04;10.73;;;6.47;;
4885;SDS011;2457;51.788;6.136;2023-04-08T15:07:32;11.77;;;6.00;;
4885;SDS011;2457;51.788;6.136;2023-04-08T15:09:59;12.57;;;6.23;;
4885;SDS011;2457;51.788;6.136;2023-04-08T15:12:27;11.53;;;6.50;;
4885;SDS011;2457;51.788;6.136;2023-04-08T15:14:54;14.20;;;7.20;;
4885;SDS011;2457;51.788;6.136;2023-04-08T15:17:21;11.50;;;6.30;;
4885;SDS011;2457;51.788;6.136;2023-04-08T15:19:49;12.27;;;7.10;;
4885;SDS011;2457;51.788;6.136;2023-04-08T15:22:16;12.00;;;6.87;;
4885;SDS011;2457;51.788;6.136;2023-04-08T15:24:43;11.97;;;6.73;;
4885;SDS011;2457;51.788;6.136;2023-04-08T15:27:10;11.83;;;7.40;;